CPA531 RCTP-VHHH
Flight info
| Callsign | CPA531 |
|---|---|
| Flight time | N/A |
| Altitude | 40000 |
| Route | CHALI1B CHALI T3 MKG A1 ELATO V522 ABBEY |
| Aircraft | A359/H-SDE2E3GHIJ1J3J4J5LM1ORWXY/LB1D1 |
Departure
| Time | 2026-05-05 23:17 |
|---|---|
| Airport | Taiwan Taoyuan International Airport (RCTP) |
Arrival
| Time | N/A |
|---|---|
| Airport | Hong Kong International Airport (VHHH) |
| Time | Latitude | Longitude | Altitude | Speed | Heading |
|---|---|---|---|---|---|
| 2026-05-05 23:03 | 25.08033 | 121.23967 | 107 ft | 0 kts | 319° |
| 2026-05-05 23:06 | 25.08023 | 121.23976 | 106 ft | 4 kts | 319° |
| 2026-05-05 23:06 | 25.08003 | 121.23995 | 107 ft | 4 kts | 319° |
| 2026-05-05 23:07 | 25.07982 | 121.24015 | 105 ft | 4 kts | 319° |
| 2026-05-05 23:07 | 25.07963 | 121.24034 | 104 ft | 3 kts | 319° |
| 2026-05-05 23:07 | 25.07947 | 121.24047 | 106 ft | 4 kts | 342° |
| 2026-05-05 23:07 | 25.07931 | 121.24050 | 106 ft | 4 kts | 29° |
| 2026-05-05 23:08 | 25.07911 | 121.24033 | 104 ft | 4 kts | 49° |
| 2026-05-05 23:08 | 25.07905 | 121.24024 | 104 ft | 0 kts | 49° |
| 2026-05-05 23:14 | 25.07913 | 121.24035 | 104 ft | 8 kts | 49° |
| 2026-05-05 23:14 | 25.07963 | 121.24100 | 107 ft | 14 kts | 50° |
| 2026-05-05 23:14 | 25.07961 | 121.24195 | 107 ft | 15 kts | 138° |
| 2026-05-05 23:14 | 25.07878 | 121.24286 | 106 ft | 16 kts | 111° |
| 2026-05-05 23:15 | 25.07935 | 121.24382 | 106 ft | 17 kts | 49° |
| 2026-05-05 23:15 | 25.08025 | 121.24496 | 106 ft | 22 kts | 49° |
| 2026-05-05 23:15 | 25.08135 | 121.24635 | 106 ft | 26 kts | 49° |
| 2026-05-05 23:15 | 25.08261 | 121.24796 | 106 ft | 29 kts | 49° |
| 2026-05-05 23:16 | 25.08385 | 121.24953 | 106 ft | 20 kts | 49° |
| 2026-05-05 23:16 | 25.08439 | 121.25058 | 105 ft | 16 kts | 101° |
| 2026-05-05 23:16 | 25.08349 | 121.25156 | 102 ft | 22 kts | 141° |
| 2026-05-05 23:16 | 25.08278 | 121.25137 | 103 ft | 11 kts | 229° |
| 2026-05-05 23:17 | 25.08124 | 121.24941 | 101 ft | 73 kts | 229° |
| 2026-05-05 23:17 | 25.07602 | 121.24278 | 104 ft | 153 kts | 229° |
| 2026-05-05 23:17 | 25.06829 | 121.23269 | 672 ft | 177 kts | 230° |
| 2026-05-05 23:17 | 25.06054 | 121.22198 | 1572 ft | 181 kts | 230° |
| 2026-05-05 23:18 | 25.05224 | 121.21064 | 2189 ft | 202 kts | 228° |
| 2026-05-05 23:18 | 25.04276 | 121.19820 | 2914 ft | 224 kts | 229° |
| 2026-05-05 23:18 | 25.03371 | 121.18389 | 4004 ft | 231 kts | 246° |
| 2026-05-05 23:18 | 25.03122 | 121.16621 | 5122 ft | 244 kts | 275° |
| 2026-05-05 23:19 | 25.03747 | 121.14859 | 6068 ft | 252 kts | 301° |
| 2026-05-05 23:19 | 25.04724 | 121.13217 | 6802 ft | 262 kts | 300° |
| 2026-05-05 23:19 | 25.05667 | 121.11445 | 7440 ft | 269 kts | 294° |
| 2026-05-05 23:19 | 25.05844 | 121.11061 | 7607 ft | 269 kts | 293° |
| 2026-05-05 23:20 | 25.06358 | 121.09901 | 8127 ft | 268 kts | 292° |
| 2026-05-05 23:20 | 25.07168 | 121.08043 | 8931 ft | 269 kts | 292° |
| 2026-05-05 23:20 | 25.07984 | 121.06187 | 9727 ft | 270 kts | 292° |
| 2026-05-05 23:20 | 25.08813 | 121.04312 | 10383 ft | 276 kts | 292° |
| 2026-05-05 23:21 | 25.09677 | 121.02358 | 10689 ft | 292 kts | 292° |
| 2026-05-05 23:21 | 25.10528 | 121.00296 | 10969 ft | 307 kts | 288° |
| 2026-05-05 23:21 | 25.11106 | 120.97987 | 11219 ft | 318 kts | 276° |
| 2026-05-05 23:21 | 25.11202 | 120.95512 | 11453 ft | 329 kts | 264° |
| 2026-05-05 23:22 | 25.10751 | 120.93003 | 11677 ft | 339 kts | 252° |
| 2026-05-05 23:22 | 25.09733 | 120.90618 | 11921 ft | 350 kts | 238° |
| 2026-05-05 23:22 | 25.08185 | 120.88518 | 12288 ft | 356 kts | 227° |
| 2026-05-05 23:22 | 25.06407 | 120.86602 | 12700 ft | 359 kts | 226° |
| 2026-05-05 23:23 | 25.04599 | 120.84692 | 13105 ft | 361 kts | 226° |
| 2026-05-05 23:23 | 25.02782 | 120.82762 | 13492 ft | 364 kts | 226° |
| 2026-05-05 23:23 | 25.00959 | 120.80814 | 13900 ft | 366 kts | 226° |
| 2026-05-05 23:23 | 24.99127 | 120.78851 | 14263 ft | 367 kts | 226° |
| 2026-05-05 23:24 | 24.97294 | 120.76884 | 14612 ft | 370 kts | 226° |
| 2026-05-05 23:24 | 24.95442 | 120.74894 | 14975 ft | 372 kts | 226° |
| 2026-05-05 23:24 | 24.93605 | 120.72921 | 15339 ft | 374 kts | 226° |
| 2026-05-05 23:24 | 24.91738 | 120.70917 | 15721 ft | 376 kts | 226° |
| 2026-05-05 23:25 | 24.89861 | 120.68902 | 16080 ft | 378 kts | 226° |
| 2026-05-05 23:25 | 24.87975 | 120.66878 | 16496 ft | 378 kts | 227° |
| 2026-05-05 23:25 | 24.86085 | 120.64852 | 16976 ft | 378 kts | 227° |
| 2026-05-05 23:25 | 24.84200 | 120.62831 | 17373 ft | 380 kts | 227° |
| 2026-05-05 23:26 | 24.82295 | 120.60790 | 17786 ft | 382 kts | 227° |
| 2026-05-05 23:26 | 24.80380 | 120.58738 | 18157 ft | 385 kts | 227° |
| 2026-05-05 23:26 | 24.78456 | 120.56677 | 18527 ft | 386 kts | 227° |
| 2026-05-05 23:26 | 24.76560 | 120.54648 | 18957 ft | 385 kts | 227° |
| 2026-05-05 23:27 | 24.74635 | 120.52589 | 19313 ft | 386 kts | 227° |
| 2026-05-05 23:27 | 24.72633 | 120.50597 | 19639 ft | 391 kts | 223° |
| 2026-05-05 23:27 | 24.70462 | 120.48761 | 19977 ft | 394 kts | 220° |
| 2026-05-05 23:27 | 24.68215 | 120.47023 | 20292 ft | 397 kts | 219° |
| 2026-05-05 23:28 | 24.65917 | 120.45317 | 20614 ft | 399 kts | 218° |
| 2026-05-05 23:28 | 24.63603 | 120.43618 | 20920 ft | 402 kts | 218° |
| 2026-05-05 23:28 | 24.61274 | 120.41901 | 21222 ft | 404 kts | 219° |
| 2026-05-05 23:28 | 24.58943 | 120.40167 | 21529 ft | 406 kts | 219° |
| 2026-05-05 23:29 | 24.56605 | 120.38414 | 21819 ft | 408 kts | 219° |
| 2026-05-05 23:29 | 24.54261 | 120.36647 | 22100 ft | 410 kts | 219° |
| 2026-05-05 23:29 | 24.51903 | 120.34865 | 22388 ft | 412 kts | 219° |
| 2026-05-05 23:29 | 24.49537 | 120.33076 | 22679 ft | 414 kts | 219° |
| 2026-05-05 23:30 | 24.47161 | 120.31279 | 22966 ft | 416 kts | 219° |
| 2026-05-05 23:30 | 24.45582 | 120.30086 | 23143 ft | 418 kts | 219° |
| 2026-05-05 23:30 | 24.42368 | 120.27636 | 23528 ft | 421 kts | 220° |
| 2026-05-05 23:30 | 24.39968 | 120.25768 | 23793 ft | 423 kts | 220° |
| 2026-05-05 23:31 | 24.37572 | 120.23893 | 24119 ft | 424 kts | 220° |
| 2026-05-05 23:31 | 24.35163 | 120.22008 | 24401 ft | 426 kts | 220° |
| 2026-05-05 23:31 | 24.32740 | 120.20117 | 24678 ft | 427 kts | 220° |
| 2026-05-05 23:31 | 24.30314 | 120.18229 | 24958 ft | 429 kts | 220° |
| 2026-05-05 23:32 | 24.27881 | 120.16339 | 25244 ft | 430 kts | 220° |
| 2026-05-05 23:32 | 24.25429 | 120.14437 | 25511 ft | 432 kts | 220° |
| 2026-05-05 23:32 | 24.22999 | 120.12554 | 25784 ft | 434 kts | 220° |
| 2026-05-05 23:32 | 24.20528 | 120.10641 | 26097 ft | 435 kts | 220° |
| 2026-05-05 23:33 | 24.18047 | 120.08722 | 26389 ft | 437 kts | 220° |
| 2026-05-05 23:33 | 24.15551 | 120.06791 | 26666 ft | 440 kts | 220° |
| 2026-05-05 23:33 | 24.13048 | 120.04858 | 26984 ft | 441 kts | 220° |
| 2026-05-05 23:33 | 24.10537 | 120.02919 | 27278 ft | 443 kts | 220° |
| 2026-05-05 23:34 | 24.08862 | 120.01624 | 27481 ft | 444 kts | 220° |
| 2026-05-05 23:34 | 24.06330 | 119.99668 | 27766 ft | 447 kts | 220° |
| 2026-05-05 23:34 | 24.03779 | 119.97698 | 28059 ft | 449 kts | 220° |
| 2026-05-05 23:34 | 24.01217 | 119.95721 | 28383 ft | 451 kts | 220° |
| 2026-05-05 23:35 | 23.98642 | 119.93741 | 28699 ft | 453 kts | 220° |
| 2026-05-05 23:35 | 23.96048 | 119.91748 | 28978 ft | 456 kts | 220° |
| 2026-05-05 23:35 | 23.93453 | 119.89749 | 29333 ft | 457 kts | 220° |
| 2026-05-05 23:35 | 23.90856 | 119.87750 | 29838 ft | 456 kts | 220° |
| 2026-05-05 23:36 | 23.88264 | 119.85756 | 30299 ft | 455 kts | 220° |
| 2026-05-05 23:36 | 23.85665 | 119.83757 | 30591 ft | 458 kts | 220° |
| 2026-05-05 23:36 | 23.83055 | 119.81750 | 31001 ft | 458 kts | 221° |
| 2026-05-05 23:36 | 23.80453 | 119.79750 | 31388 ft | 460 kts | 221° |
| 2026-05-05 23:37 | 23.77854 | 119.77755 | 31723 ft | 462 kts | 221° |
| 2026-05-05 23:37 | 23.75193 | 119.75712 | 32114 ft | 463 kts | 221° |
| 2026-05-05 23:37 | 23.72559 | 119.73693 | 32556 ft | 462 kts | 221° |
| 2026-05-05 23:37 | 23.69929 | 119.71680 | 33102 ft | 461 kts | 221° |
| 2026-05-05 23:38 | 23.67331 | 119.69692 | 33512 ft | 463 kts | 221° |
| 2026-05-05 23:38 | 23.64687 | 119.67668 | 33904 ft | 465 kts | 221° |
| 2026-05-05 23:38 | 23.62076 | 119.65584 | 34284 ft | 462 kts | 225° |
| 2026-05-05 23:38 | 23.59743 | 119.63227 | 34750 ft | 453 kts | 233° |
| 2026-05-05 23:39 | 23.57768 | 119.60574 | 35144 ft | 448 kts | 240° |
| 2026-05-05 23:39 | 23.56016 | 119.57769 | 35481 ft | 448 kts | 242° |
| 2026-05-05 23:39 | 23.54335 | 119.54917 | 35888 ft | 447 kts | 243° |
| 2026-05-05 23:39 | 23.52688 | 119.52044 | 36335 ft | 445 kts | 243° |
| 2026-05-05 23:40 | 23.51052 | 119.49170 | 36705 ft | 447 kts | 243° |
| 2026-05-05 23:40 | 23.49408 | 119.46287 | 37016 ft | 448 kts | 243° |
| 2026-05-05 23:40 | 23.47775 | 119.43440 | 37410 ft | 449 kts | 243° |
| 2026-05-05 23:40 | 23.46113 | 119.40561 | 37865 ft | 448 kts | 243° |
| 2026-05-05 23:41 | 23.44452 | 119.37699 | 38336 ft | 446 kts | 243° |
| 2026-05-05 23:41 | 23.42794 | 119.34847 | 38767 ft | 445 kts | 242° |
| 2026-05-05 23:41 | 23.41137 | 119.32001 | 39115 ft | 444 kts | 242° |
| 2026-05-05 23:41 | 23.39481 | 119.29157 | 39417 ft | 445 kts | 242° |
| 2026-05-05 23:42 | 23.37823 | 119.26311 | 39724 ft | 445 kts | 242° |
| 2026-05-05 23:42 | 23.36165 | 119.23466 | 39956 ft | 447 kts | 242° |
| 2026-05-05 23:42 | 23.32802 | 119.17693 | 40006 ft | 453 kts | 242° |
| 2026-05-05 23:43 | 23.29417 | 119.11896 | 40005 ft | 455 kts | 242° |
| 2026-05-05 23:43 | 23.26012 | 119.06076 | 40011 ft | 455 kts | 242° |
| 2026-05-05 23:44 | 23.22628 | 119.00295 | 40020 ft | 456 kts | 242° |
| 2026-05-05 23:44 | 23.19218 | 118.94475 | 40017 ft | 456 kts | 242° |
| 2026-05-05 23:45 | 23.15807 | 118.88660 | 40013 ft | 456 kts | 242° |
| 2026-05-05 23:45 | 23.12392 | 118.82844 | 40011 ft | 457 kts | 242° |
| 2026-05-05 23:46 | 23.08991 | 118.77059 | 40015 ft | 457 kts | 242° |
| 2026-05-05 23:46 | 23.05569 | 118.71244 | 40014 ft | 457 kts | 242° |
| 2026-05-05 23:47 | 23.02153 | 118.65447 | 40014 ft | 457 kts | 242° |
| 2026-05-05 23:47 | 22.98720 | 118.59628 | 40011 ft | 458 kts | 242° |
| 2026-05-05 23:48 | 22.95285 | 118.53811 | 40011 ft | 458 kts | 242° |
| 2026-05-05 23:48 | 22.91833 | 118.48000 | 40014 ft | 458 kts | 242° |
| 2026-05-05 23:49 | 22.88372 | 118.42188 | 40013 ft | 458 kts | 242° |
| 2026-05-05 23:49 | 22.84907 | 118.36373 | 40013 ft | 459 kts | 242° |
| 2026-05-05 23:50 | 22.81436 | 118.30555 | 40010 ft | 459 kts | 242° |
| 2026-05-05 23:50 | 22.77989 | 118.24783 | 40010 ft | 459 kts | 242° |
| 2026-05-05 23:51 | 22.74512 | 118.18966 | 40013 ft | 460 kts | 242° |
| 2026-05-05 23:51 | 22.71032 | 118.13151 | 40011 ft | 460 kts | 242° |
| 2026-05-05 23:52 | 22.67550 | 118.07340 | 40014 ft | 460 kts | 242° |
| 2026-05-05 23:52 | 22.64054 | 118.01511 | 40010 ft | 462 kts | 242° |
| 2026-05-05 23:53 | 22.60552 | 117.95677 | 40012 ft | 463 kts | 242° |
| 2026-05-05 23:53 | 22.57047 | 117.89820 | 40011 ft | 463 kts | 242° |
| 2026-05-05 23:54 | 22.53576 | 117.83959 | 40012 ft | 463 kts | 242° |
| 2026-05-05 23:54 | 22.50097 | 117.78095 | 40007 ft | 464 kts | 242° |
| 2026-05-05 23:55 | 22.46620 | 117.72252 | 40010 ft | 464 kts | 242° |
| 2026-05-05 23:55 | 22.43121 | 117.66385 | 40009 ft | 464 kts | 242° |
| 2026-05-05 23:56 | 22.39613 | 117.60510 | 40007 ft | 465 kts | 242° |
| 2026-05-05 23:56 | 22.36149 | 117.54614 | 40002 ft | 463 kts | 245° |
| 2026-05-05 23:57 | 22.33787 | 117.48234 | 40004 ft | 454 kts | 260° |
| 2026-05-05 23:57 | 22.33120 | 117.41633 | 40011 ft | 450 kts | 270° |
| 2026-05-05 23:58 | 22.32989 | 117.34877 | 40014 ft | 450 kts | 271° |
| 2026-05-05 23:58 | 22.32921 | 117.28145 | 40012 ft | 450 kts | 271° |
| 2026-05-05 23:59 | 22.32821 | 117.21380 | 40010 ft | 451 kts | 271° |
| 2026-05-05 23:59 | 22.32697 | 117.14604 | 40002 ft | 451 kts | 271° |
| 2026-05-06 00:00 | 22.32562 | 117.07816 | 40003 ft | 451 kts | 271° |
| 2026-05-06 00:00 | 22.32426 | 117.01035 | 40013 ft | 451 kts | 271° |
| 2026-05-06 00:01 | 22.32289 | 116.94304 | 40001 ft | 451 kts | 271° |
| 2026-05-06 00:01 | 22.32148 | 116.87516 | 40006 ft | 452 kts | 271° |
| 2026-05-06 00:02 | 22.32005 | 116.80726 | 40007 ft | 452 kts | 271° |
| 2026-05-06 00:02 | 22.31859 | 116.73942 | 40010 ft | 452 kts | 271° |
| 2026-05-06 00:03 | 22.31710 | 116.67162 | 40006 ft | 452 kts | 271° |
| 2026-05-06 00:03 | 22.31558 | 116.60372 | 40006 ft | 452 kts | 271° |
| 2026-05-06 00:04 | 22.31403 | 116.53583 | 40010 ft | 452 kts | 271° |
| 2026-05-06 00:04 | 22.31246 | 116.46801 | 40004 ft | 452 kts | 271° |
| 2026-05-06 00:05 | 22.31004 | 116.36597 | 40010 ft | 453 kts | 271° |
| 2026-05-06 00:06 | 22.30839 | 116.29803 | 40012 ft | 453 kts | 271° |
| 2026-05-06 00:06 | 22.30672 | 116.23031 | 39910 ft | 454 kts | 271° |
| 2026-05-06 00:06 | 22.30587 | 116.19631 | 39575 ft | 453 kts | 271° |
| 2026-05-06 00:07 | 22.30502 | 116.16233 | 39039 ft | 454 kts | 271° |
| 2026-05-06 00:07 | 22.30415 | 116.12813 | 38361 ft | 455 kts | 271° |
| 2026-05-06 00:07 | 22.30328 | 116.09396 | 37609 ft | 454 kts | 270° |
| 2026-05-06 00:07 | 22.30241 | 116.05995 | 36848 ft | 453 kts | 270° |
| 2026-05-06 00:08 | 22.30153 | 116.02595 | 36039 ft | 454 kts | 270° |
| 2026-05-06 00:08 | 22.30064 | 115.99180 | 35207 ft | 455 kts | 270° |
| 2026-05-06 00:08 | 22.29974 | 115.95759 | 34409 ft | 456 kts | 270° |
| 2026-05-06 00:08 | 22.29882 | 115.92319 | 33560 ft | 459 kts | 269° |
| 2026-05-06 00:09 | 22.29788 | 115.88857 | 32683 ft | 463 kts | 270° |
| 2026-05-06 00:09 | 22.29693 | 115.85361 | 31824 ft | 468 kts | 270° |
| 2026-05-06 00:09 | 22.29596 | 115.81832 | 30998 ft | 474 kts | 270° |
| 2026-05-06 00:09 | 22.29502 | 115.78297 | 30203 ft | 480 kts | 270° |
| 2026-05-06 00:10 | 22.29412 | 115.74673 | 29292 ft | 484 kts | 270° |
| 2026-05-06 00:10 | 22.29318 | 115.71035 | 28382 ft | 483 kts | 270° |
| 2026-05-06 00:10 | 22.29220 | 115.67431 | 27506 ft | 479 kts | 269° |
| 2026-05-06 00:10 | 22.29119 | 115.63847 | 26654 ft | 475 kts | 269° |
| 2026-05-06 00:11 | 22.29020 | 115.60298 | 25843 ft | 471 kts | 269° |
| 2026-05-06 00:11 | 22.28923 | 115.56790 | 25177 ft | 464 kts | 269° |
| 2026-05-06 00:11 | 22.28827 | 115.53319 | 24538 ft | 459 kts | 269° |
| 2026-05-06 00:11 | 22.28731 | 115.49882 | 23922 ft | 456 kts | 269° |
| 2026-05-06 00:12 | 22.28635 | 115.46467 | 23274 ft | 454 kts | 269° |
| 2026-05-06 00:12 | 22.28539 | 115.43076 | 22544 ft | 450 kts | 269° |
| 2026-05-06 00:12 | 22.28445 | 115.39710 | 21845 ft | 445 kts | 269° |
| 2026-05-06 00:12 | 22.28350 | 115.36386 | 21167 ft | 439 kts | 269° |
| 2026-05-06 00:13 | 22.28256 | 115.33107 | 20492 ft | 434 kts | 269° |
| 2026-05-06 00:13 | 22.28159 | 115.29877 | 19847 ft | 428 kts | 268° |
| 2026-05-06 00:13 | 22.28031 | 115.26681 | 19204 ft | 423 kts | 266° |
| 2026-05-06 00:13 | 22.27550 | 115.23571 | 18614 ft | 419 kts | 256° |
| 2026-05-06 00:14 | 22.26670 | 115.20633 | 18145 ft | 414 kts | 251° |
| 2026-05-06 00:14 | 22.25676 | 115.17735 | 17637 ft | 410 kts | 250° |
| 2026-05-06 00:14 | 22.24664 | 115.14871 | 17139 ft | 407 kts | 250° |
| 2026-05-06 00:14 | 22.23651 | 115.12036 | 16629 ft | 403 kts | 250° |
| 2026-05-06 00:15 | 22.22641 | 115.09224 | 16152 ft | 399 kts | 250° |
| 2026-05-06 00:15 | 22.21647 | 115.06468 | 15678 ft | 396 kts | 249° |
| 2026-05-06 00:15 | 22.21006 | 115.04695 | 15369 ft | 394 kts | 249° |
| 2026-05-06 00:15 | 22.20098 | 115.02183 | 14953 ft | 391 kts | 249° |
| 2026-05-06 00:16 | 22.19112 | 114.99462 | 14502 ft | 388 kts | 249° |
| 2026-05-06 00:16 | 22.18133 | 114.96761 | 14048 ft | 385 kts | 249° |
| 2026-05-06 00:16 | 22.17163 | 114.94088 | 13587 ft | 382 kts | 249° |
| 2026-05-06 00:16 | 22.16196 | 114.91424 | 13128 ft | 379 kts | 249° |
| 2026-05-06 00:17 | 22.15236 | 114.88783 | 12724 ft | 377 kts | 249° |
| 2026-05-06 00:17 | 22.14283 | 114.86162 | 12329 ft | 375 kts | 249° |
| 2026-05-06 00:17 | 22.13331 | 114.83547 | 11934 ft | 373 kts | 249° |
| 2026-05-06 00:17 | 22.12388 | 114.80955 | 11561 ft | 371 kts | 249° |
| 2026-05-06 00:18 | 22.11447 | 114.78370 | 11171 ft | 366 kts | 249° |
| 2026-05-06 00:18 | 22.10544 | 114.75895 | 10793 ft | 350 kts | 249° |
| 2026-05-06 00:18 | 22.09669 | 114.73496 | 10421 ft | 340 kts | 249° |
| 2026-05-06 00:18 | 22.08808 | 114.71133 | 10040 ft | 337 kts | 249° |
| 2026-05-06 00:19 | 22.07954 | 114.68793 | 9663 ft | 335 kts | 249° |
| 2026-05-06 00:19 | 22.07104 | 114.66462 | 9252 ft | 333 kts | 249° |
| 2026-05-06 00:19 | 22.06542 | 114.64923 | 8980 ft | 332 kts | 249° |
| 2026-05-06 00:19 | 22.06021 | 114.63339 | 8742 ft | 331 kts | 254° |
| 2026-05-06 00:20 | 22.05699 | 114.61720 | 8621 ft | 330 kts | 262° |